Time;durP1;ratioP1;P1;durP2;ratioP2;P2;SDS_P1;SDS_P2;PMS_P1;PMS_P2;Temp;Humidity;BMP_temperature;BMP_pressure;BME280_temperature;BME280_humidity;BME280_pressure;Samples;Min_cycle;Max_cycle;Signal;HPM_P1;HPM_P2
2022/08/14 00:01:29;;;;;;;15.50;8.60;;;;;;;;;;3365377;42;20091;-63
2022/08/14 00:04:00;;;;;;;17.70;9.00;;;;;;;;;;3365631;42;20094;-61
2022/08/14 00:06:31;;;;;;;21.30;8.67;;;;;;;;;;3365430;42;20200;-62
2022/08/14 00:09:03;;;;;;;21.40;8.27;;;;;;;;;;3365096;42;20092;-62
2022/08/14 00:11:34;;;;;;;19.88;8.65;;;;;;;;;;3365543;42;20099;-62
2022/08/14 00:14:05;;;;;;;18.35;8.60;;;;;;;;;;3364134;42;20084;-64
2022/08/14 00:16:36;;;;;;;15.98;8.02;;;;;;;;;;3370445;42;20509;-62
2022/08/14 00:19:08;;;;;;;20.83;8.70;;;;;;;;;;3365232;42;20163;-62
2022/08/14 00:21:39;;;;;;;16.63;8.40;;;;;;;;;;3365024;42;20111;-62
2022/08/14 00:24:10;;;;;;;18.95;8.40;;;;;;;;;;3357874;42;20106;-62
2022/08/14 00:26:41;;;;;;;18.40;8.13;;;;;;;;;;3362074;42;20100;-62
2022/08/14 00:29:13;;;;;;;19.70;8.77;;;;;;;;;;3371283;42;20243;-63
2022/08/14 00:31:44;;;;;;;16.00;8.27;;;;;;;;;;3363365;42;20092;-62
2022/08/14 00:34:15;;;;;;;20.40;8.10;;;;;;;;;;3364649;42;20501;-63
2022/08/14 00:36:46;;;;;;;18.60;8.10;;;;;;;;;;3353382;42;20114;-63
2022/08/14 00:39:17;;;;;;;16.38;7.97;;;;;;;;;;3365929;42;20562;-63
2022/08/14 00:41:49;;;;;;;16.23;8.13;;;;;;;;;;3357775;42;20115;-63
2022/08/14 00:44:20;;;;;;;17.20;8.00;;;;;;;;;;3367664;42;20625;-62
2022/08/14 00:46:51;;;;;;;15.80;7.93;;;;;;;;;;3361225;42;20122;-62
2022/08/14 00:49:22;;;;;;;20.30;8.00;;;;;;;;;;3360617;42;20170;-63
2022/08/14 00:51:53;;;;;;;17.80;8.02;;;;;;;;;;3359663;42;20570;-62
2022/08/14 00:54:25;;;;;;;16.75;7.80;;;;;;;;;;3366922;42;20150;-62
2022/08/14 00:56:56;;;;;;;19.73;7.70;;;;;;;;;;3349068;42;20130;-62
2022/08/14 00:59:28;;;;;;;16.08;7.90;;;;;;;;;;3360812;42;20099;-62
2022/08/14 01:01:59;;;;;;;16.40;7.70;;;;;;;;;;3365534;42;20540;-62
2022/08/14 01:04:31;;;;;;;16.30;7.70;;;;;;;;;;3361169;42;20087;-62
2022/08/14 01:07:02;;;;;;;18.10;7.38;;;;;;;;;;3357533;42;21038;-61
2022/08/14 01:09:33;;;;;;;16.50;7.27;;;;;;;;;;3371719;42;20551;-62
2022/08/14 01:12:04;;;;;;;18.92;7.88;;;;;;;;;;3348191;42;20237;-63
2022/08/14 01:14:36;;;;;;;15.57;6.90;;;;;;;;;;3363878;42;20166;-62
2022/08/14 01:17:07;;;;;;;16.33;7.35;;;;;;;;;;3360858;42;20100;-62
2022/08/14 01:22:27;;;;;;;22.37;7.53;;;;;;;;;;3364580;42;20629;-61
2022/08/14 01:24:59;;;;;;;17.27;7.70;;;;;;;;;;3357501;42;20103;-61
2022/08/14 01:27:30;;;;;;;14.02;7.20;;;;;;;;;;3371370;42;20115;-62
2022/08/14 01:30:02;;;;;;;18.55;7.40;;;;;;;;;;3364518;42;20088;-62
2022/08/14 01:32:33;;;;;;;13.02;6.75;;;;;;;;;;3364444;42;20100;-63
2022/08/14 01:35:06;;;;;;;14.53;7.60;;;;;;;;;;3364371;42;20158;-62
2022/08/14 01:37:38;;;;;;;20.27;7.53;;;;;;;;;;3364580;42;20166;-61
2022/08/14 01:40:09;;;;;;;19.00;7.97;;;;;;;;;;3364520;42;20510;-61
2022/08/14 01:42:42;;;;;;;13.85;8.02;;;;;;;;;;3368193;42;20092;-63
2022/08/14 01:45:13;;;;;;;17.23;7.95;;;;;;;;;;3371694;42;20130;-62
2022/08/14 01:47:44;;;;;;;16.33;7.67;;;;;;;;;;3364664;42;20091;-62
2022/08/14 01:50:17;;;;;;;14.93;7.35;;;;;;;;;;3364338;42;20114;-61
2022/08/14 01:52:48;;;;;;;13.55;7.15;;;;;;;;;;3371601;42;20151;-62
2022/08/14 01:55:19;;;;;;;15.05;6.97;;;;;;;;;;3364371;42;20570;-61
2022/08/14 01:57:50;;;;;;;15.50;7.53;;;;;;;;;;3371465;42;20106;-61
2022/08/14 02:00:21;;;;;;;15.57;6.70;;;;;;;;;;3371372;42;20162;-62
2022/08/14 02:02:54;;;;;;;17.80;7.03;;;;;;;;;;3360588;42;20099;-62
2022/08/14 02:05:29;;;;;;;14.32;6.90;;;;;;;;;;3353268;42;20095;-62
2022/08/14 02:08:00;;;;;;;15.02;6.75;;;;;;;;;;3364543;42;20509;-62
2022/08/14 02:10:34;;;;;;;14.98;6.80;;;;;;;;;;3364104;42;20099;-63
2022/08/14 02:13:08;;;;;;;16.90;7.30;;;;;;;;;;3364486;42;20277;-62
2022/08/14 02:15:39;;;;;;;15.05;6.57;;;;;;;;;;3364149;42;20083;-60
2022/08/14 02:18:10;;;;;;;14.07;6.90;;;;;;;;;;3369641;42;20100;-61
2022/08/14 02:20:41;;;;;;;12.63;6.80;;;;;;;;;;3375716;42;20092;-61
2022/08/14 02:23:13;;;;;;;14.55;6.13;;;;;;;;;;3364355;42;20162;-63
2022/08/14 02:25:44;;;;;;;14.73;6.57;;;;;;;;;;3364843;42;20137;-61
2022/08/14 02:28:15;;;;;;;13.25;6.55;;;;;;;;;;3366029;42;20115;-62
2022/08/14 02:30:46;;;;;;;13.45;6.88;;;;;;;;;;3365512;42;20617;-62
2022/08/14 02:33:17;;;;;;;13.82;6.70;;;;;;;;;;3365479;42;20103;-63
2022/08/14 02:35:49;;;;;;;14.48;6.60;;;;;;;;;;3359603;42;20620;-63
2022/08/14 02:38:20;;;;;;;14.40;6.70;;;;;;;;;;3351716;42;20131;-62
2022/08/14 02:40:51;;;;;;;11.95;6.55;;;;;;;;;;3365902;42;20163;-61
2022/08/14 02:43:22;;;;;;;11.10;6.47;;;;;;;;;;3372989;42;20169;-62
2022/08/14 02:45:54;;;;;;;12.18;6.90;;;;;;;;;;3372917;42;20123;-61
2022/08/14 02:48:30;;;;;;;15.57;6.95;;;;;;;;;;3371235;42;20088;-61
2022/08/14 02:51:03;;;;;;;14.67;6.40;;;;;;;;;;3364260;42;20103;-62
2022/08/14 02:53:35;;;;;;;12.32;6.82;;;;;;;;;;3366021;42;20096;-64
2022/08/14 02:56:07;;;;;;;16.08;6.65;;;;;;;;;;3365890;42;20581;-62
2022/08/14 02:58:39;;;;;;;15.90;6.50;;;;;;;;;;3364153;42;20104;-63
2022/08/14 03:01:10;;;;;;;15.50;7.00;;;;;;;;;;3361001;42;20084;-61
2022/08/14 03:03:42;;;;;;;13.63;6.60;;;;;;;;;;3365960;42;20151;-62
2022/08/14 03:06:13;;;;;;;12.93;6.32;;;;;;;;;;3371094;42;20691;-62
2022/08/14 03:08:44;;;;;;;14.65;7.18;;;;;;;;;;3365165;42;20140;-62
2022/08/14 03:11:16;;;;;;;14.00;7.18;;;;;;;;;;3365780;42;20566;-62
2022/08/14 03:13:50;;;;;;;13.32;6.68;;;;;;;;;;3365541;42;20512;-65
2022/08/14 03:16:23;;;;;;;12.03;6.33;;;;;;;;;;3365751;42;20165;-62
2022/08/14 03:18:57;;;;;;;11.60;6.68;;;;;;;;;;3363984;42;20108;-63
2022/08/14 03:21:32;;;;;;;13.77;7.00;;;;;;;;;;3358651;42;20096;-62
2022/08/14 03:24:08;;;;;;;13.88;6.72;;;;;;;;;;3372932;42;20155;-64
2022/08/14 03:26:41;;;;;;;14.88;6.97;;;;;;;;;;3372151;42;20157;-63
2022/08/14 03:29:15;;;;;;;16.20;6.90;;;;;;;;;;3365740;42;20932;-63
2022/08/14 03:31:48;;;;;;;13.90;7.85;;;;;;;;;;3358873;42;20087;-63
2022/08/14 03:34:22;;;;;;;16.38;8.38;;;;;;;;;;3354775;42;20104;-63
2022/08/14 03:36:55;;;;;;;17.30;7.47;;;;;;;;;;3366809;42;20570;-62
2022/08/14 03:39:27;;;;;;;14.88;7.22;;;;;;;;;;3359179;42;20846;-63
2022/08/14 03:41:58;;;;;;;12.73;7.53;;;;;;;;;;3364384;42;20190;-64
2022/08/14 03:44:31;;;;;;;14.38;7.60;;;;;;;;;;3359557;42;20092;-62
2022/08/14 03:47:02;;;;;;;20.08;9.20;;;;;;;;;;3351675;42;20096;-62
2022/08/14 03:49:33;;;;;;;21.27;8.98;;;;;;;;;;3356673;42;20563;-63
2022/08/14 03:52:04;;;;;;;28.67;11.30;;;;;;;;;;3371975;42;20593;-63
2022/08/14 03:54:36;;;;;;;33.43;12.07;;;;;;;;;;3374349;42;20251;-63
2022/08/14 03:57:07;;;;;;;34.20;13.25;;;;;;;;;;3372472;42;20103;-62
2022/08/14 03:59:38;;;;;;;30.73;13.05;;;;;;;;;;3362967;42;20087;-62
2022/08/14 04:02:10;;;;;;;21.92;10.20;;;;;;;;;;3356821;42;20087;-63
2022/08/14 04:04:43;;;;;;;23.58;10.60;;;;;;;;;;3360809;42;20092;-63
2022/08/14 04:07:14;;;;;;;22.30;10.50;;;;;;;;;;3367670;42;20126;-65
2022/08/14 04:09:45;;;;;;;30.67;11.80;;;;;;;;;;3356824;42;20633;-63
2022/08/14 04:12:18;;;;;;;35.30;14.93;;;;;;;;;;3362180;42;20092;-63
2022/08/14 04:14:51;;;;;;;35.67;16.00;;;;;;;;;;3366644;42;20104;-62
2022/08/14 04:17:22;;;;;;;34.95;15.55;;;;;;;;;;3360212;42;20092;-62
2022/08/14 04:19:53;;;;;;;48.17;19.13;;;;;;;;;;3364645;42;20114;-61
2022/08/14 04:22:25;;;;;;;41.53;16.10;;;;;;;;;;3359047;42;20088;-63
2022/08/14 04:24:58;;;;;;;38.40;16.17;;;;;;;;;;3372921;42;20142;-61
2022/08/14 04:27:29;;;;;;;36.15;15.10;;;;;;;;;;3359159;42;20123;-61
2022/08/14 04:30:01;;;;;;;44.88;16.85;;;;;;;;;;3370309;42;20103;-65
2022/08/14 04:32:32;;;;;;;37.73;14.23;;;;;;;;;;3364666;42;20147;-63
2022/08/14 04:35:04;;;;;;;27.15;11.02;;;;;;;;;;3364961;42;20098;-62
2022/08/14 04:46:15;;;;;;;18.20;8.87;;;;;;;;;;3364909;42;20546;-62
2022/08/14 04:48:47;;;;;;;34.95;13.68;;;;;;;;;;3364937;42;20566;-63
2022/08/14 04:51:19;;;;;;;36.45;14.32;;;;;;;;;;3364598;42;20100;-63
2022/08/14 04:53:50;;;;;;;30.45;12.20;;;;;;;;;;3365137;42;20087;-64
2022/08/14 04:56:23;;;;;;;17.05;7.47;;;;;;;;;;3372028;42;20585;-62
2022/08/14 04:58:59;;;;;;;16.83;7.53;;;;;;;;;;3364923;42;20123;-63
2022/08/14 05:01:30;;;;;;;13.02;6.63;;;;;;;;;;3363050;42;20593;-65
2022/08/14 05:04:01;;;;;;;19.48;8.25;;;;;;;;;;3363249;42;20147;-62
2022/08/14 05:06:32;;;;;;;13.20;6.97;;;;;;;;;;3364049;42;20562;-61
2022/08/14 05:09:04;;;;;;;12.77;7.13;;;;;;;;;;3358288;42;20491;-63
2022/08/14 05:11:35;;;;;;;18.10;8.43;;;;;;;;;;3371505;42;20092;-62
2022/08/14 05:14:07;;;;;;;14.15;7.80;;;;;;;;;;3364887;42;20083;-62
2022/08/14 05:16:38;;;;;;;10.82;6.22;;;;;;;;;;3348957;42;20175;-62
2022/08/14 05:19:12;;;;;;;11.65;6.28;;;;;;;;;;3369792;42;20091;-63
2022/08/14 05:21:43;;;;;;;12.52;6.00;;;;;;;;;;3364475;42;20083;-64
2022/08/14 05:24:15;;;;;;;13.30;5.23;;;;;;;;;;3357543;42;20083;-63
2022/08/14 05:26:46;;;;;;;9.25;5.15;;;;;;;;;;3364696;42;20584;-63
2022/08/14 05:29:18;;;;;;;10.52;5.18;;;;;;;;;;3364264;42;20100;-63
2022/08/14 05:31:49;;;;;;;9.85;5.13;;;;;;;;;;3364489;42;20112;-62
2022/08/14 05:34:22;;;;;;;10.82;4.82;;;;;;;;;;3361227;42;20100;-62
2022/08/14 05:36:56;;;;;;;11.27;5.17;;;;;;;;;;3362135;42;20135;-63
2022/08/14 05:39:28;;;;;;;10.57;5.00;;;;;;;;;;3360917;42;20107;-61
2022/08/14 05:41:59;;;;;;;12.15;4.70;;;;;;;;;;3362740;42;20150;-63
2022/08/14 05:44:30;;;;;;;9.57;4.80;;;;;;;;;;3364183;42;20165;-65
2022/08/14 05:47:02;;;;;;;9.98;4.47;;;;;;;;;;3364360;42;20095;-64
2022/08/14 05:49:33;;;;;;;10.97;4.40;;;;;;;;;;3359711;42;20104;-63
2022/08/14 05:52:05;;;;;;;8.75;4.75;;;;;;;;;;3357570;42;20102;-62
2022/08/14 05:54:36;;;;;;;7.95;4.68;;;;;;;;;;3358992;42;20605;-62
2022/08/14 05:57:07;;;;;;;7.90;4.40;;;;;;;;;;3366010;42;20101;-61
2022/08/14 05:59:38;;;;;;;8.52;4.78;;;;;;;;;;3363552;42;20100;-62
2022/08/14 06:02:10;;;;;;;10.93;4.50;;;;;;;;;;3366409;42;20115;-62
2022/08/14 06:04:46;;;;;;;9.23;4.40;;;;;;;;;;3363014;42;20169;-61
2022/08/14 06:07:18;;;;;;;19.80;7.97;;;;;;;;;;3369666;42;20095;-62
2022/08/14 06:09:49;;;;;;;12.70;5.43;;;;;;;;;;3371470;42;20096;-61
2022/08/14 06:12:20;;;;;;;9.43;4.50;;;;;;;;;;3364957;42;20470;-62
2022/08/14 06:14:51;;;;;;;9.80;5.00;;;;;;;;;;3366009;42;20210;-62
2022/08/14 06:17:23;;;;;;;10.70;4.90;;;;;;;;;;3368711;42;20092;-64
2022/08/14 06:19:54;;;;;;;11.10;4.72;;;;;;;;;;3365416;42;20096;-61
2022/08/14 06:22:25;;;;;;;9.80;4.70;;;;;;;;;;3372746;42;20087;-62
2022/08/14 06:24:56;;;;;;;9.30;4.70;;;;;;;;;;3358625;42;20114;-61
2022/08/14 06:27:27;;;;;;;8.70;4.67;;;;;;;;;;3365137;42;20092;-62
2022/08/14 06:29:59;;;;;;;10.15;4.70;;;;;;;;;;3365256;42;20091;-62
2022/08/14 06:32:30;;;;;;;10.80;4.88;;;;;;;;;;3365812;42;20525;-62
2022/08/14 06:35:07;;;;;;;9.57;4.50;;;;;;;;;;3363881;42;20109;-63
2022/08/14 06:37:52;;;;;;;8.43;4.80;;;;;;;;;;3366159;42;20092;-62
2022/08/14 06:40:29;;;;;;;9.13;4.50;;;;;;;;;;3367519;42;20534;-61
2022/08/14 06:43:02;;;;;;;8.48;4.63;;;;;;;;;;3366022;42;20099;-61
2022/08/14 06:45:34;;;;;;;8.32;4.75;;;;;;;;;;3365772;42;20099;-61
2022/08/14 06:48:16;;;;;;;7.57;4.40;;;;;;;;;;3357772;42;20139;-63
2022/08/14 06:50:48;;;;;;;9.57;4.60;;;;;;;;;;3367547;42;20766;-62
2022/08/14 06:53:20;;;;;;;9.20;5.00;;;;;;;;;;3366099;42;20096;-62
2022/08/14 06:55:51;;;;;;;13.57;5.40;;;;;;;;;;3362558;42;20561;-62
2022/08/14 06:58:22;;;;;;;10.80;4.50;;;;;;;;;;3369787;42;20092;-64
2022/08/14 07:06:32;;;;;;;10.13;4.43;;;;;;;;;;3369090;42;20088;-64
2022/08/14 07:09:03;;;;;;;8.50;4.10;;;;;;;;;;3363082;42;20100;-62
2022/08/14 07:11:35;;;;;;;9.30;4.10;;;;;;;;;;3364069;42;20148;-62
2022/08/14 07:14:06;;;;;;;12.65;3.70;;;;;;;;;;3364224;42;20108;-62
2022/08/14 07:16:37;;;;;;;7.13;3.63;;;;;;;;;;3360707;42;20107;-61
2022/08/14 07:19:08;;;;;;;10.37;3.90;;;;;;;;;;3362114;42;20092;-63
2022/08/14 07:21:40;;;;;;;8.23;3.08;;;;;;;;;;3364560;42;20707;-62
2022/08/14 07:24:11;;;;;;;8.02;3.42;;;;;;;;;;3353489;42;20462;-62
2022/08/14 07:26:42;;;;;;;7.63;3.45;;;;;;;;;;3368738;42;20088;-63
2022/08/14 07:29:13;;;;;;;10.85;3.47;;;;;;;;;;3368383;42;20198;-63
2022/08/14 07:31:44;;;;;;;8.13;3.40;;;;;;;;;;3362276;42;20150;-62
2022/08/14 07:34:15;;;;;;;8.50;3.17;;;;;;;;;;3372204;42;20088;-62
2022/08/14 07:36:47;;;;;;;6.95;3.15;;;;;;;;;;3365182;42;20143;-63
2022/08/14 07:39:18;;;;;;;7.68;3.15;;;;;;;;;;3363857;42;20552;-63
2022/08/14 07:41:49;;;;;;;8.18;3.28;;;;;;;;;;3363278;42;20100;-63
2022/08/14 07:44:20;;;;;;;7.13;3.10;;;;;;;;;;3365320;42;20604;-63
2022/08/14 07:46:52;;;;;;;7.60;3.05;;;;;;;;;;3365153;42;20099;-64
2022/08/14 07:49:23;;;;;;;7.75;3.20;;;;;;;;;;3365103;42;20092;-60
2022/08/14 07:51:55;;;;;;;7.40;3.45;;;;;;;;;;3363738;42;20146;-59
2022/08/14 07:54:26;;;;;;;7.47;2.90;;;;;;;;;;3356534;42;20104;-56
2022/08/14 07:56:58;;;;;;;7.57;3.50;;;;;;;;;;3358058;42;20146;-58
2022/08/14 07:59:29;;;;;;;6.35;2.90;;;;;;;;;;3362715;42;20624;-55
2022/08/14 08:02:02;;;;;;;7.65;2.72;;;;;;;;;;3364130;42;20201;-62
2022/08/14 08:04:33;;;;;;;6.10;2.80;;;;;;;;;;3364932;42;20110;-58
2022/08/14 08:07:05;;;;;;;6.80;2.60;;;;;;;;;;3365174;42;20150;-59
2022/08/14 08:09:36;;;;;;;6.33;2.60;;;;;;;;;;3364933;42;20107;-59
2022/08/14 08:12:08;;;;;;;7.57;3.10;;;;;;;;;;3369542;42;20728;-58
2022/08/14 08:14:40;;;;;;;7.03;2.90;;;;;;;;;;3361763;42;20090;-57
2022/08/14 08:17:11;;;;;;;9.20;2.88;;;;;;;;;;3357932;42;20092;-60
2022/08/14 08:19:46;;;;;;;9.27;2.88;;;;;;;;;;3370054;42;20091;-63
2022/08/14 08:22:18;;;;;;;7.73;3.63;;;;;;;;;;3364863;42;20147;-62
2022/08/14 08:24:49;;;;;;;6.82;2.58;;;;;;;;;;3357941;42;20107;-62
2022/08/14 08:27:20;;;;;;;7.18;2.83;;;;;;;;;;3364860;42;20578;-62
2022/08/14 08:29:51;;;;;;;6.05;2.60;;;;;;;;;;3364225;42;20142;-62
2022/08/14 08:32:23;;;;;;;10.40;3.17;;;;;;;;;;3356391;42;20540;-62
2022/08/14 08:34:54;;;;;;;7.47;2.60;;;;;;;;;;3361950;42;20573;-62
2022/08/14 08:37:28;;;;;;;6.22;2.60;;;;;;;;;;3362832;42;20163;-62
2022/08/14 08:39:59;;;;;;;7.82;2.70;;;;;;;;;;3345664;42;20146;-62
2022/08/14 08:42:31;;;;;;;6.97;2.78;;;;;;;;;;3358939;42;20633;-62
2022/08/14 08:45:02;;;;;;;5.38;2.40;;;;;;;;;;3362288;42;20170;-62
2022/08/14 08:47:38;;;;;;;6.40;2.83;;;;;;;;;;3362519;42;20080;-62
2022/08/14 08:50:20;;;;;;;6.45;2.70;;;;;;;;;;3369414;42;20123;-63
2022/08/14 08:52:53;;;;;;;6.97;2.50;;;;;;;;;;3365153;42;20080;-62
2022/08/14 08:55:29;;;;;;;10.35;2.67;;;;;;;;;;3355654;42;20210;-62
2022/08/14 08:58:11;;;;;;;8.27;3.03;;;;;;;;;;3353738;42;20246;-63
2022/08/14 09:00:46;;;;;;;6.63;2.50;;;;;;;;;;3362885;42;20092;-62
2022/08/14 09:03:20;;;;;;;6.88;2.70;;;;;;;;;;3357498;42;20088;-61
2022/08/14 09:05:53;;;;;;;5.55;2.20;;;;;;;;;;3360849;42;20166;-61
2022/08/14 09:08:27;;;;;;;6.15;2.92;;;;;;;;;;3365660;42;20520;-62
2022/08/14 09:10:59;;;;;;;6.68;2.75;;;;;;;;;;3357942;42;20088;-61
2022/08/14 09:13:31;;;;;;;6.63;2.50;;;;;;;;;;3372033;42;20580;-62
2022/08/14 09:16:02;;;;;;;6.38;2.58;;;;;;;;;;3364650;42;20246;-61
2022/08/14 09:18:33;;;;;;;6.28;2.50;;;;;;;;;;3364078;42;20584;-62
2022/08/14 09:21:05;;;;;;;7.22;2.58;;;;;;;;;;3369381;42;20091;-63
2022/08/14 09:23:36;;;;;;;9.00;2.63;;;;;;;;;;3357266;42;20639;-62
2022/08/14 09:26:08;;;;;;;5.80;2.50;;;;;;;;;;3357657;42;20096;-62
2022/08/14 09:28:39;;;;;;;5.65;2.50;;;;;;;;;;3357333;42;20100;-62
2022/08/14 09:31:10;;;;;;;8.43;2.50;;;;;;;;;;3364740;42;20096;-62
2022/08/14 09:33:41;;;;;;;6.40;2.83;;;;;;;;;;3344581;42;20159;-62
2022/08/14 09:37:01;;;;;;;8.02;2.83;;;;;;;;;;3368382;42;20147;-63
2022/08/14 09:39:56;;;;;;;7.53;2.13;;;;;;;;;;3368395;42;20556;-63
2022/08/14 09:43:29;;;;;;;8.23;2.53;;;;;;;;;;3354207;42;20134;-62
2022/08/14 09:46:00;;;;;;;6.93;2.58;;;;;;;;;;3345858;42;20085;-63
2022/08/14 09:48:32;;;;;;;5.97;2.20;;;;;;;;;;3349221;42;20506;-63
2022/08/14 09:51:04;;;;;;;5.50;2.35;;;;;;;;;;3353725;42;20562;-63
2022/08/14 09:53:42;;;;;;;6.03;2.50;;;;;;;;;;3353009;42;20115;-62
2022/08/14 09:56:14;;;;;;;7.22;2.30;;;;;;;;;;3362328;42;20108;-63
2022/08/14 09:58:45;;;;;;;6.65;2.45;;;;;;;;;;3360963;42;20095;-62
2022/08/14 10:01:18;;;;;;;7.20;2.15;;;;;;;;;;3358871;42;20160;-62
2022/08/14 10:03:56;;;;;;;5.88;2.30;;;;;;;;;;3369064;42;20102;-62
2022/08/14 10:06:28;;;;;;;5.67;2.40;;;;;;;;;;3361244;42;20136;-63
2022/08/14 10:09:03;;;;;;;9.60;2.63;;;;;;;;;;3358778;42;20588;-63
2022/08/14 10:11:36;;;;;;;7.43;1.95;;;;;;;;;;3367166;42;20102;-63
2022/08/14 10:14:17;;;;;;;4.93;2.15;;;;;;;;;;3356899;42;20103;-64
2022/08/14 10:16:51;;;;;;;5.63;2.25;;;;;;;;;;3361581;42;20163;-63
2022/08/14 10:19:24;;;;;;;7.93;2.20;;;;;;;;;;3362512;42;20167;-62
2022/08/14 10:22:09;;;;;;;9.98;2.38;;;;;;;;;;3364085;42;20096;-63
2022/08/14 10:24:46;;;;;;;7.38;2.00;;;;;;;;;;3356920;42;20138;-63
2022/08/14 10:27:19;;;;;;;5.72;2.22;;;;;;;;;;3358618;42;20147;-63
2022/08/14 10:29:53;;;;;;;6.80;2.10;;;;;;;;;;3368839;42;20630;-63
2022/08/14 10:32:25;;;;;;;5.90;2.20;;;;;;;;;;3353694;42;20088;-62
2022/08/14 10:35:07;;;;;;;6.65;2.20;;;;;;;;;;3355457;42;20192;-63
2022/08/14 10:37:40;;;;;;;7.57;2.15;;;;;;;;;;3361467;42;20114;-64
2022/08/14 10:40:12;;;;;;;5.32;2.30;;;;;;;;;;3365623;42;20198;-63
2022/08/14 10:42:45;;;;;;;5.68;2.50;;;;;;;;;;3342867;42;20555;-61
2022/08/14 10:45:19;;;;;;;5.40;2.07;;;;;;;;;;3364828;42;20171;-61
2022/08/14 10:47:51;;;;;;;8.07;2.00;;;;;;;;;;3358060;42;20183;-61
2022/08/14 10:50:29;;;;;;;7.15;2.28;;;;;;;;;;3361579;42;20186;-62
2022/08/14 10:53:04;;;;;;;7.63;2.25;;;;;;;;;;3366464;42;20103;-62
2022/08/14 10:55:39;;;;;;;6.20;2.03;;;;;;;;;;3364178;42;20174;-63
2022/08/14 10:58:11;;;;;;;5.00;1.83;;;;;;;;;;3353819;42;20091;-62
2022/08/14 11:00:56;;;;;;;5.00;1.92;;;;;;;;;;3369042;42;20103;-64
2022/08/14 11:03:37;;;;;;;6.05;1.90;;;;;;;;;;3354837;42;20111;-63
2022/08/14 11:06:18;;;;;;;6.82;2.20;;;;;;;;;;3364299;42;20106;-63
2022/08/14 11:08:50;;;;;;;6.43;2.20;;;;;;;;;;3365592;42;20526;-62
2022/08/14 11:11:24;;;;;;;7.10;1.97;;;;;;;;;;3365806;42;20613;-62
2022/08/14 11:13:56;;;;;;;7.88;2.00;;;;;;;;;;3365140;42;20691;-62
2022/08/14 11:16:28;;;;;;;7.22;1.90;;;;;;;;;;3352870;42;20565;-61
2022/08/14 11:18:59;;;;;;;5.10;1.90;;;;;;;;;;3360401;42;20087;-61
2022/08/14 11:21:31;;;;;;;6.50;2.33;;;;;;;;;;3351483;42;20557;-63
2022/08/14 11:24:02;;;;;;;8.60;2.80;;;;;;;;;;3364298;42;20174;-62
2022/08/14 11:26:34;;;;;;;6.75;2.83;;;;;;;;;;3351269;42;20630;-63
2022/08/14 11:29:05;;;;;;;5.88;2.20;;;;;;;;;;3358023;42;20549;-62
2022/08/14 11:31:36;;;;;;;7.28;2.25;;;;;;;;;;3365429;42;20092;-62
2022/08/14 11:34:09;;;;;;;7.75;2.58;;;;;;;;;;3365410;42;20099;-62
2022/08/14 11:36:41;;;;;;;7.40;2.30;;;;;;;;;;3365214;42;20103;-61
2022/08/14 11:39:19;;;;;;;5.78;1.90;;;;;;;;;;3365417;42;20095;-62
2022/08/14 11:41:50;;;;;;;6.60;2.10;;;;;;;;;;3365357;42;20169;-62
2022/08/14 11:44:22;;;;;;;7.30;2.10;;;;;;;;;;3365114;42;20092;-63
2022/08/14 11:46:53;;;;;;;7.10;1.83;;;;;;;;;;3364790;42;20104;-63
2022/08/14 11:49:29;;;;;;;8.93;2.20;;;;;;;;;;3358214;42;20111;-62
2022/08/14 11:52:01;;;;;;;4.80;2.10;;;;;;;;;;3371758;42;20569;-62
2022/08/14 11:54:34;;;;;;;7.32;1.73;;;;;;;;;;3358053;42;20096;-61
2022/08/14 11:57:12;;;;;;;5.18;2.10;;;;;;;;;;3364932;42;20107;-62
2022/08/14 11:59:44;;;;;;;8.45;2.28;;;;;;;;;;3363326;42;20092;-62
2022/08/14 12:02:16;;;;;;;8.87;2.30;;;;;;;;;;3363619;42;20096;-62
2022/08/14 12:04:56;;;;;;;5.70;2.00;;;;;;;;;;3355079;42;20111;-62
2022/08/14 12:07:27;;;;;;;6.72;1.67;;;;;;;;;;3362267;42;20096;-63
2022/08/14 12:09:58;;;;;;;7.35;2.25;;;;;;;;;;3349322;42;20096;-62
2022/08/14 12:12:31;;;;;;;5.10;1.90;;;;;;;;;;3356557;42;20602;-63
2022/08/14 12:15:03;;;;;;;6.10;1.93;;;;;;;;;;3359508;42;20111;-62
2022/08/14 12:17:52;;;;;;;5.13;1.90;;;;;;;;;;3372336;42;20088;-63
2022/08/14 12:20:36;;;;;;;9.30;2.60;;;;;;;;;;3374887;42;20106;-63
2022/08/14 12:23:20;;;;;;;6.05;2.22;;;;;;;;;;3371519;42;20187;-61
2022/08/14 12:26:04;;;;;;;8.15;2.03;;;;;;;;;;3365457;42;20084;-61
2022/08/14 12:28:37;;;;;;;5.60;2.00;;;;;;;;;;3366030;42;20231;-63
2022/08/14 12:31:18;;;;;;;6.60;2.03;;;;;;;;;;3371931;42;20106;-63
2022/08/14 12:33:58;;;;;;;8.85;2.67;;;;;;;;;;3367445;42;20125;-60
2022/08/14 12:36:29;;;;;;;9.07;2.50;;;;;;;;;;3352894;42;20109;-61
2022/08/14 12:39:15;;;;;;;8.27;2.30;;;;;;;;;;3347001;42;20099;-62
2022/08/14 12:41:53;;;;;;;6.63;2.10;;;;;;;;;;3365269;42;20139;-61
2022/08/14 12:44:28;;;;;;;5.80;2.00;;;;;;;;;;3357853;42;20099;-62
2022/08/14 12:47:04;;;;;;;6.22;2.10;;;;;;;;;;3356778;42;20222;-63
2022/08/14 12:49:35;;;;;;;6.40;2.17;;;;;;;;;;3359219;42;20100;-64
2022/08/14 12:52:07;;;;;;;5.18;1.95;;;;;;;;;;3367690;42;20558;-61
2022/08/14 12:54:39;;;;;;;7.23;2.23;;;;;;;;;;3366585;42;20575;-62
2022/08/14 12:57:12;;;;;;;6.70;1.95;;;;;;;;;;3357404;42;20562;-62
2022/08/14 12:59:44;;;;;;;8.38;2.00;;;;;;;;;;3349893;42;20115;-62
2022/08/14 13:02:22;;;;;;;6.38;2.10;;;;;;;;;;3349706;42;20115;-64
2022/08/14 13:04:54;;;;;;;5.20;2.10;;;;;;;;;;3352691;42;20088;-62
2022/08/14 13:07:26;;;;;;;7.83;1.90;;;;;;;;;;3353198;42;20088;-61
2022/08/14 13:09:57;;;;;;;9.52;2.10;;;;;;;;;;3359561;42;20096;-60
2022/08/14 13:12:28;;;;;;;6.90;2.13;;;;;;;;;;3372045;42;20088;-62
2022/08/14 13:15:00;;;;;;;5.15;2.00;;;;;;;;;;3364830;42;20088;-63
2022/08/14 13:17:31;;;;;;;6.35;2.15;;;;;;;;;;3353099;42;20103;-62
2022/08/14 13:20:02;;;;;;;10.43;2.20;;;;;;;;;;3357279;42;20206;-61
2022/08/14 13:22:33;;;;;;;7.25;1.98;;;;;;;;;;3371554;42;20121;-46
2022/08/14 13:25:05;;;;;;;8.73;1.90;;;;;;;;;;3364442;42;20088;-47
2022/08/14 13:27:37;;;;;;;8.80;1.83;;;;;;;;;;3364553;42;20096;-49
2022/08/14 13:30:09;;;;;;;6.07;2.20;;;;;;;;;;3356502;42;20129;-49
2022/08/14 13:32:43;;;;;;;7.53;2.10;;;;;;;;;;3359806;42;20102;-49
2022/08/14 13:35:15;;;;;;;6.03;1.80;;;;;;;;;;3360225;42;20115;-47
2022/08/14 13:37:48;;;;;;;5.72;2.00;;;;;;;;;;3367378;42;20102;-49
2022/08/14 13:40:21;;;;;;;5.25;2.10;;;;;;;;;;3362578;42;20102;-44
2022/08/14 13:42:54;;;;;;;9.38;1.88;;;;;;;;;;3364441;42;20100;-45
2022/08/14 13:45:25;;;;;;;6.13;1.80;;;;;;;;;;3364602;42;20591;-47
2022/08/14 13:47:57;;;;;;;6.82;1.83;;;;;;;;;;3350040;42;20095;-44
2022/08/14 13:50:28;;;;;;;5.22;1.70;;;;;;;;;;3371518;42;20183;-48
2022/08/14 13:52:59;;;;;;;4.82;1.75;;;;;;;;;;3367112;42;20396;-46
2022/08/14 13:55:31;;;;;;;6.38;2.00;;;;;;;;;;3348912;42;20203;-44
2022/08/14 13:58:02;;;;;;;6.70;2.20;;;;;;;;;;3345271;42;20100;-55
2022/08/14 14:00:35;;;;;;;6.22;1.70;;;;;;;;;;3357180;42;20188;-44
2022/08/14 14:03:06;;;;;;;5.18;2.00;;;;;;;;;;3361538;42;20100;-48
2022/08/14 14:05:37;;;;;;;7.10;2.25;;;;;;;;;;3352837;42;20127;-46
2022/08/14 14:08:10;;;;;;;6.32;1.98;;;;;;;;;;3360931;42;20138;-47
2022/08/14 14:10:42;;;;;;;6.33;1.80;;;;;;;;;;3350687;42;20099;-48
2022/08/14 14:13:15;;;;;;;5.68;1.90;;;;;;;;;;3366645;42;20110;-48
2022/08/14 14:15:47;;;;;;;7.60;1.90;;;;;;;;;;3352164;42;20121;-45
2022/08/14 14:18:20;;;;;;;6.28;1.90;;;;;;;;;;3361664;42;20138;-44
2022/08/14 14:20:52;;;;;;;6.88;1.92;;;;;;;;;;3360789;42;20140;-48
2022/08/14 14:23:23;;;;;;;7.20;2.20;;;;;;;;;;3359236;42;20126;-48
2022/08/14 14:25:54;;;;;;;6.40;2.00;;;;;;;;;;3351262;42;20092;-48
2022/08/14 14:28:30;;;;;;;6.78;2.35;;;;;;;;;;3360814;42;20623;-51
2022/08/14 14:31:01;;;;;;;6.40;2.20;;;;;;;;;;3355932;42;20104;-43
2022/08/14 14:33:34;;;;;;;8.63;2.15;;;;;;;;;;3363993;42;20505;-47
2022/08/14 14:36:05;;;;;;;7.63;1.90;;;;;;;;;;3366611;42;20102;-49
2022/08/14 14:38:39;;;;;;;6.53;2.10;;;;;;;;;;3355784;42;20238;-48
2022/08/14 14:41:13;;;;;;;5.93;1.92;;;;;;;;;;3360632;42;20177;-46
2022/08/14 14:43:44;;;;;;;8.48;2.25;;;;;;;;;;3363287;42;20102;-52
2022/08/14 14:46:17;;;;;;;7.03;2.25;;;;;;;;;;3362371;42;20661;-51
2022/08/14 14:48:48;;;;;;;5.73;1.77;;;;;;;;;;3359141;42;20114;-44
2022/08/14 14:51:20;;;;;;;7.82;1.98;;;;;;;;;;3368987;42;20184;-50
2022/08/14 14:53:51;;;;;;;7.00;2.03;;;;;;;;;;3360332;42;20127;-50
2022/08/14 14:56:24;;;;;;;8.80;2.10;;;;;;;;;;3363136;42;20128;-44
2022/08/14 14:58:55;;;;;;;6.35;2.00;;;;;;;;;;3353749;42;20123;-46
2022/08/14 15:01:26;;;;;;;6.43;2.40;;;;;;;;;;3354031;42;20103;-44
2022/08/14 15:03:58;;;;;;;8.25;2.25;;;;;;;;;;3358980;42;20100;-48
2022/08/14 15:06:33;;;;;;;8.73;2.65;;;;;;;;;;3361749;42;20091;-47
2022/08/14 15:09:04;;;;;;;8.07;2.67;;;;;;;;;;3359734;42;20114;-47
2022/08/14 15:11:35;;;;;;;9.68;3.10;;;;;;;;;;3362013;42;20601;-50
2022/08/14 15:14:07;;;;;;;9.17;3.13;;;;;;;;;;3362014;42;20163;-48
2022/08/14 15:16:38;;;;;;;9.20;2.40;;;;;;;;;;3361009;42;20115;-46
2022/08/14 15:19:10;;;;;;;8.27;2.28;;;;;;;;;;3363651;42;20169;-50
2022/08/14 15:21:41;;;;;;;8.30;1.83;;;;;;;;;;3347549;42;20106;-48
2022/08/14 15:24:14;;;;;;;7.68;2.22;;;;;;;;;;3356050;42;20203;-51
2022/08/14 15:26:46;;;;;;;6.37;2.10;;;;;;;;;;3363700;42;20173;-43